createdAt,value
2017-07-28T00:00:19.347Z,0
2017-07-28T00:00:45.494Z,0
2017-07-28T00:01:11.618Z,0
2017-07-28T00:01:37.745Z,0
2017-07-28T00:02:03.881Z,0
2017-07-28T00:02:30.018Z,0
2017-07-28T00:02:56.148Z,0
2017-07-28T00:03:22.284Z,0
2017-07-28T00:03:48.402Z,0
2017-07-28T00:04:14.547Z,0
2017-07-28T00:04:40.714Z,0
2017-07-28T00:05:06.833Z,0
2017-07-28T00:05:32.995Z,0
2017-07-28T00:05:59.128Z,0
2017-07-28T00:06:25.251Z,0
2017-07-28T00:06:51.379Z,0
2017-07-28T00:07:17.522Z,0
2017-07-28T00:07:43.655Z,0
2017-07-28T00:08:09.761Z,0
2017-07-28T00:08:35.853Z,0
2017-07-28T00:09:01.967Z,0
2017-07-28T00:09:28.158Z,0
2017-07-28T00:09:54.306Z,0
2017-07-28T00:10:20.479Z,0
2017-07-28T00:10:46.639Z,0
2017-07-28T00:11:12.845Z,0
2017-07-28T00:11:38.985Z,0
2017-07-28T00:12:05.146Z,0
2017-07-28T00:12:31.262Z,0
2017-07-28T00:12:57.424Z,0
2017-07-28T00:13:23.574Z,0
2017-07-28T00:13:49.698Z,0
2017-07-28T00:14:15.885Z,0
2017-07-28T00:14:42.013Z,0
2017-07-28T00:15:08.177Z,0
2017-07-28T00:15:34.280Z,0
2017-07-28T00:16:00.442Z,0
2017-07-28T00:16:26.629Z,0
2017-07-28T00:16:52.754Z,0
2017-07-28T00:17:18.945Z,0
2017-07-28T00:17:45.086Z,0
2017-07-28T00:18:11.216Z,0
2017-07-28T00:18:37.333Z,0
2017-07-28T00:19:03.485Z,0
2017-07-28T00:19:29.672Z,0
2017-07-28T00:19:55.785Z,0
2017-07-28T00:20:21.911Z,0
2017-07-28T00:20:48.100Z,0
2017-07-28T00:21:14.241Z,0
2017-07-28T00:21:40.363Z,0
2017-07-28T00:22:06.542Z,0
2017-07-28T00:22:32.636Z,0
2017-07-28T00:22:58.754Z,0
2017-07-28T00:23:24.857Z,0
2017-07-28T00:23:50.995Z,0
2017-07-28T00:24:17.118Z,0
2017-07-28T00:24:43.286Z,0
2017-07-28T00:25:09.453Z,0
2017-07-28T00:25:35.615Z,0
2017-07-28T00:26:01.737Z,0
2017-07-28T00:26:27.902Z,0
2017-07-28T00:26:54.062Z,0
2017-07-28T00:27:20.212Z,0
2017-07-28T00:27:46.328Z,0
2017-07-28T00:28:12.489Z,0
2017-07-28T00:28:38.644Z,0
2017-07-28T00:29:04.758Z,0
2017-07-28T00:29:30.938Z,0
2017-07-28T00:29:57.095Z,0
2017-07-28T00:30:23.258Z,0
2017-07-28T00:30:49.371Z,0
2017-07-28T00:31:15.477Z,0
2017-07-28T00:31:41.567Z,0
2017-07-28T00:32:07.689Z,0
2017-07-28T00:32:33.845Z,0
2017-07-28T00:33:00.044Z,0
2017-07-28T00:33:26.183Z,0
2017-07-28T00:33:52.319Z,0
2017-07-28T00:34:18.537Z,0
2017-07-28T00:34:44.693Z,0
2017-07-28T00:35:10.806Z,0
2017-07-28T00:35:36.931Z,0
2017-07-28T00:36:03.038Z,0
2017-07-28T00:36:29.159Z,0
2017-07-28T00:36:55.248Z,0
2017-07-28T00:37:21.436Z,0
2017-07-28T00:37:47.890Z,0
2017-07-28T00:38:14.007Z,0
2017-07-28T00:38:40.189Z,0
2017-07-28T00:39:06.376Z,0
2017-07-28T00:39:32.490Z,0
2017-07-28T00:39:58.618Z,0
2017-07-28T00:40:24.765Z,0
2017-07-28T00:40:50.924Z,0
2017-07-28T00:41:17.071Z,0
2017-07-28T00:41:43.212Z,0
2017-07-28T00:42:09.344Z,0
2017-07-28T00:42:35.500Z,0
2017-07-28T00:43:01.641Z,0
2017-07-28T00:43:27.769Z,0
2017-07-28T00:43:53.926Z,0
2017-07-28T00:44:20.040Z,0
2017-07-28T00:44:46.240Z,0
2017-07-28T00:45:12.345Z,0
2017-07-28T00:45:38.514Z,0
2017-07-28T00:46:04.664Z,0
2017-07-28T00:46:30.805Z,0
2017-07-28T00:46:56.986Z,0
2017-07-28T00:47:23.093Z,0
2017-07-28T00:47:49.180Z,0
2017-07-28T00:48:15.309Z,0
2017-07-28T00:48:41.466Z,0
2017-07-28T00:49:07.583Z,0
2017-07-28T00:49:33.681Z,0
2017-07-28T00:49:59.870Z,0
2017-07-28T00:50:26.020Z,0
2017-07-28T00:50:52.187Z,0
2017-07-28T00:51:18.352Z,0
2017-07-28T00:51:44.533Z,0
2017-07-28T00:52:10.622Z,0
2017-07-28T00:52:36.776Z,0
2017-07-28T00:53:02.876Z,0
2017-07-28T00:53:29.013Z,0
2017-07-28T00:53:55.169Z,0
2017-07-28T00:54:21.331Z,0
2017-07-28T00:54:47.686Z,0
2017-07-28T00:55:13.787Z,0
2017-07-28T00:55:39.922Z,0
2017-07-28T00:56:06.066Z,0
2017-07-28T00:56:32.209Z,0
2017-07-28T00:56:58.333Z,0
2017-07-28T00:57:24.487Z,0
2017-07-28T00:57:50.621Z,0
2017-07-28T00:58:16.757Z,0
2017-07-28T00:58:42.881Z,0
2017-07-28T00:59:09.071Z,0
2017-07-28T00:59:35.216Z,0
2017-07-28T01:00:01.314Z,0
2017-07-28T01:00:27.560Z,0
2017-07-28T01:00:53.653Z,0
2017-07-28T01:01:19.814Z,0
2017-07-28T01:01:46.032Z,0
2017-07-28T01:02:12.129Z,0
2017-07-28T01:02:38.258Z,0
2017-07-28T01:03:04.401Z,0
2017-07-28T01:03:30.593Z,0
2017-07-28T01:03:56.755Z,0
2017-07-28T01:04:22.928Z,0
2017-07-28T01:04:49.396Z,0
2017-07-28T01:05:15.561Z,0
2017-07-28T01:05:41.683Z,0
2017-07-28T01:06:07.822Z,0
2017-07-28T01:06:33.979Z,0
2017-07-28T01:07:00.136Z,0
2017-07-28T01:07:26.248Z,0
2017-07-28T01:07:52.352Z,0
2017-07-28T01:08:18.471Z,0
2017-07-28T01:08:44.636Z,0
2017-07-28T01:09:10.757Z,0
2017-07-28T01:09:36.896Z,0
2017-07-28T01:10:03.049Z,0
2017-07-28T01:10:29.150Z,0
2017-07-28T01:10:55.262Z,0
2017-07-28T01:11:21.391Z,0
2017-07-28T01:11:47.527Z,0
2017-07-28T01:12:13.668Z,0
2017-07-28T01:12:39.793Z,0
2017-07-28T01:13:06.015Z,0
2017-07-28T01:13:32.177Z,0
2017-07-28T01:13:58.298Z,0
2017-07-28T01:14:24.487Z,0
2017-07-28T01:14:50.580Z,0
2017-07-28T01:15:16.718Z,0
2017-07-28T01:15:42.886Z,0
2017-07-28T01:16:09.006Z,0
2017-07-28T01:16:35.171Z,0
2017-07-28T01:17:01.302Z,0
2017-07-28T01:17:27.453Z,0
2017-07-28T01:17:53.568Z,0
2017-07-28T01:18:19.722Z,0
2017-07-28T01:18:45.909Z,0
2017-07-28T01:19:12.027Z,0
2017-07-28T01:19:38.211Z,0
2017-07-28T01:20:04.369Z,0
2017-07-28T01:20:30.499Z,0
2017-07-28T01:20:56.623Z,0
2017-07-28T01:21:22.788Z,0
2017-07-28T01:21:48.891Z,0
2017-07-28T01:22:15.025Z,0
2017-07-28T01:22:41.137Z,0
2017-07-28T01:23:07.261Z,0
2017-07-28T01:23:33.396Z,0
2017-07-28T01:23:59.514Z,0
2017-07-28T01:24:25.657Z,0
2017-07-28T01:24:51.751Z,0
2017-07-28T01:25:17.904Z,0
2017-07-28T01:25:44.036Z,0
2017-07-28T01:26:10.149Z,0
2017-07-28T01:26:36.283Z,0
2017-07-28T01:27:02.434Z,0
2017-07-28T01:27:28.551Z,0
2017-07-28T01:27:54.699Z,0
2017-07-28T01:28:20.805Z,0
2017-07-28T01:28:46.956Z,0
2017-07-28T01:29:13.046Z,0
2017-07-28T01:29:39.236Z,0
2017-07-28T01:30:05.331Z,0
2017-07-28T01:30:31.534Z,0
2017-07-28T01:30:57.678Z,0
2017-07-28T01:31:23.772Z,0
2017-07-28T01:31:49.908Z,0
2017-07-28T01:32:16.024Z,0
2017-07-28T01:32:42.213Z,0
2017-07-28T01:33:08.401Z,0
2017-07-28T01:33:34.599Z,0
2017-07-28T01:34:00.684Z,0
2017-07-28T01:34:26.813Z,0
2017-07-28T01:34:52.968Z,0
2017-07-28T01:35:19.058Z,0
2017-07-28T01:35:45.160Z,0
2017-07-28T01:36:11.277Z,0
2017-07-28T01:36:37.414Z,0
2017-07-28T01:37:03.598Z,0
2017-07-28T01:37:29.717Z,0
2017-07-28T01:37:55.849Z,0
2017-07-28T01:38:21.976Z,0
2017-07-28T01:38:48.069Z,0
2017-07-28T01:39:14.172Z,0
2017-07-28T01:39:40.281Z,0
2017-07-28T01:40:06.417Z,0
2017-07-28T01:40:32.572Z,0
2017-07-28T01:40:58.759Z,0
2017-07-28T01:41:24.901Z,0
2017-07-28T01:41:51.091Z,0
2017-07-28T01:42:17.253Z,0
2017-07-28T01:42:43.405Z,0
2017-07-28T01:43:09.540Z,0
2017-07-28T01:43:35.702Z,0
2017-07-28T01:44:01.828Z,0
2017-07-28T01:44:28.018Z,0
2017-07-28T01:44:54.158Z,0
2017-07-28T01:45:20.351Z,0
2017-07-28T01:45:46.483Z,0
2017-07-28T01:46:12.578Z,0
2017-07-28T01:46:38.692Z,0
2017-07-28T01:47:04.823Z,0
2017-07-28T01:47:30.952Z,0
2017-07-28T01:47:57.087Z,0
2017-07-28T01:48:23.258Z,0
2017-07-28T01:48:49.428Z,0
2017-07-28T01:49:15.589Z,0
2017-07-28T01:49:41.740Z,0
2017-07-28T01:50:07.928Z,0
2017-07-28T01:50:34.090Z,0
2017-07-28T01:51:00.232Z,0
2017-07-28T01:51:26.397Z,0
2017-07-28T01:51:52.528Z,0
2017-07-28T01:52:18.739Z,0
2017-07-28T01:52:44.914Z,0
2017-07-28T01:53:11.036Z,0
2017-07-28T01:53:37.151Z,0
2017-07-28T01:54:03.317Z,0
2017-07-28T01:54:29.478Z,0
2017-07-28T01:54:55.634Z,0
2017-07-28T01:55:21.813Z,0
2017-07-28T01:55:47.911Z,0
2017-07-28T01:56:14.052Z,0
2017-07-28T01:56:40.207Z,0
2017-07-28T01:57:06.367Z,0
2017-07-28T01:57:32.477Z,0
2017-07-28T01:57:58.600Z,0
2017-07-28T01:58:24.735Z,0
2017-07-28T01:58:50.876Z,0
2017-07-28T01:59:17.021Z,0
2017-07-28T01:59:43.126Z,0
2017-07-28T02:00:09.271Z,0
2017-07-28T02:00:35.438Z,0
2017-07-28T02:01:01.600Z,0
2017-07-28T02:01:27.751Z,0
2017-07-28T02:01:53.844Z,0
2017-07-28T02:02:20.028Z,0
2017-07-28T02:02:46.155Z,0
2017-07-28T02:03:12.268Z,0
2017-07-28T02:03:38.397Z,0
2017-07-28T02:04:04.537Z,0
2017-07-28T02:04:30.780Z,0
2017-07-28T02:04:56.935Z,0
2017-07-28T02:05:23.099Z,0
2017-07-28T02:05:49.206Z,0
2017-07-28T02:06:15.323Z,0
2017-07-28T02:06:41.397Z,0
2017-07-28T02:07:07.574Z,0
2017-07-28T02:07:33.681Z,0
2017-07-28T02:07:59.783Z,0
2017-07-28T02:08:25.910Z,0
2017-07-28T02:08:52.094Z,0
2017-07-28T02:09:18.283Z,0
2017-07-28T02:09:44.454Z,0
2017-07-28T02:10:10.569Z,0
2017-07-28T02:10:36.746Z,0
2017-07-28T02:11:02.906Z,0
2017-07-28T02:11:29.041Z,0
2017-07-28T02:11:55.216Z,0
2017-07-28T02:12:21.323Z,0
2017-07-28T02:12:47.467Z,0
2017-07-28T02:13:13.589Z,0
2017-07-28T02:13:39.747Z,0
2017-07-28T02:14:05.868Z,0
2017-07-28T02:14:32.042Z,0
2017-07-28T02:14:58.199Z,0
2017-07-28T02:15:24.377Z,0
2017-07-28T02:15:50.536Z,0
2017-07-28T02:16:16.680Z,0
2017-07-28T02:16:42.776Z,0
2017-07-28T02:17:08.912Z,0
2017-07-28T02:17:35.031Z,0
2017-07-28T02:18:01.119Z,0
2017-07-28T02:18:27.279Z,0
2017-07-28T02:18:53.402Z,0
2017-07-28T02:19:19.518Z,0
2017-07-28T02:19:45.648Z,0
2017-07-28T02:20:11.773Z,0
2017-07-28T02:20:37.920Z,0
2017-07-28T02:21:04.065Z,0
2017-07-28T02:21:30.181Z,0
2017-07-28T02:21:56.314Z,0
2017-07-28T02:22:22.467Z,0
2017-07-28T02:22:48.581Z,0
2017-07-28T02:23:14.716Z,0
2017-07-28T02:23:40.870Z,0
2017-07-28T02:24:06.959Z,0
2017-07-28T02:24:33.091Z,0
2017-07-28T02:24:59.222Z,0
2017-07-28T02:25:25.334Z,0
2017-07-28T02:25:51.488Z,0
2017-07-28T02:26:17.608Z,0
2017-07-28T02:26:43.788Z,0
2017-07-28T02:27:09.970Z,0
2017-07-28T02:27:36.087Z,0
2017-07-28T02:28:02.211Z,0
2017-07-28T02:28:28.372Z,0
2017-07-28T02:28:54.563Z,0
2017-07-28T02:29:20.734Z,0
2017-07-28T02:29:46.867Z,0
2017-07-28T02:30:12.955Z,0
2017-07-28T02:30:39.052Z,0
2017-07-28T02:31:05.213Z,0
2017-07-28T02:31:31.427Z,0
2017-07-28T02:31:57.589Z,0
2017-07-28T02:32:23.751Z,0
2017-07-28T02:32:49.932Z,0
2017-07-28T02:33:16.068Z,0
2017-07-28T02:33:42.216Z,0
2017-07-28T02:34:08.360Z,0
2017-07-28T02:34:34.541Z,0
2017-07-28T02:35:00.712Z,0
2017-07-28T02:35:26.849Z,0
2017-07-28T02:35:52.983Z,0
2017-07-28T02:36:19.157Z,0
2017-07-28T02:36:45.272Z,0
2017-07-28T02:37:11.433Z,0
2017-07-28T02:37:37.525Z,0
2017-07-28T02:38:03.655Z,0
2017-07-28T02:38:29.803Z,0
2017-07-28T02:38:55.893Z,0
2017-07-28T02:39:22.055Z,0
2017-07-28T02:39:48.172Z,0
2017-07-28T02:40:14.313Z,0
2017-07-28T02:40:40.498Z,0
2017-07-28T02:41:06.652Z,0
2017-07-28T02:41:32.823Z,0
2017-07-28T02:41:58.951Z,0
2017-07-28T02:42:25.115Z,0
2017-07-28T02:42:51.227Z,0
2017-07-28T02:43:17.323Z,0
2017-07-28T02:43:43.487Z,0
2017-07-28T02:44:09.655Z,0
2017-07-28T02:44:35.801Z,0
2017-07-28T02:45:01.989Z,0
2017-07-28T02:45:28.138Z,0
2017-07-28T02:45:54.278Z,0
2017-07-28T02:46:20.470Z,0
2017-07-28T02:46:46.612Z,0
2017-07-28T02:47:12.703Z,0
2017-07-28T02:47:38.838Z,0
2017-07-28T02:48:05.023Z,0
2017-07-28T02:48:31.176Z,0
2017-07-28T02:48:57.297Z,0
2017-07-28T02:49:23.386Z,0
2017-07-28T02:49:49.587Z,0
2017-07-28T02:50:15.756Z,0
2017-07-28T02:50:41.847Z,0
2017-07-28T02:51:07.977Z,0
2017-07-28T02:51:34.148Z,0
2017-07-28T02:52:00.286Z,0
2017-07-28T02:52:26.440Z,0
2017-07-28T02:52:52.603Z,0
2017-07-28T02:53:18.714Z,0
2017-07-28T02:53:44.859Z,0
2017-07-28T02:54:10.982Z,0
2017-07-28T02:54:37.099Z,0
2017-07-28T02:55:03.246Z,0
2017-07-28T02:55:29.407Z,0
2017-07-28T02:55:55.500Z,0
2017-07-28T02:56:21.663Z,0
2017-07-28T02:56:47.799Z,0
2017-07-28T02:57:13.921Z,0
2017-07-28T02:57:40.009Z,0
2017-07-28T02:58:06.167Z,0
2017-07-28T02:58:32.322Z,0
2017-07-28T02:58:58.436Z,0
2017-07-28T02:59:24.559Z,0
2017-07-28T02:59:50.650Z,0
2017-07-28T03:00:16.812Z,0
2017-07-28T03:00:42.964Z,0
2017-07-28T03:01:09.149Z,0
2017-07-28T03:01:35.302Z,0
2017-07-28T03:02:01.458Z,0
2017-07-28T03:02:27.647Z,0
2017-07-28T03:02:53.777Z,0
2017-07-28T03:03:19.937Z,0
2017-07-28T03:03:46.049Z,0
2017-07-28T03:04:12.172Z,0
2017-07-28T03:04:38.314Z,0
2017-07-28T03:05:04.453Z,0
2017-07-28T03:05:30.604Z,0
2017-07-28T03:05:56.742Z,0
2017-07-28T03:06:22.918Z,0
2017-07-28T03:06:49.024Z,0
2017-07-28T03:07:15.108Z,0
2017-07-28T03:07:41.207Z,0
2017-07-28T03:08:07.314Z,0
2017-07-28T03:08:33.432Z,0
2017-07-28T03:08:59.555Z,0
2017-07-28T03:09:25.659Z,0
2017-07-28T03:09:51.808Z,0
2017-07-28T03:10:17.948Z,0
2017-07-28T03:10:44.161Z,0
2017-07-28T03:11:10.356Z,0
2017-07-28T03:11:36.519Z,0
2017-07-28T03:12:02.636Z,0
2017-07-28T03:12:28.778Z,0
2017-07-28T03:12:54.883Z,0
2017-07-28T03:13:20.978Z,0
2017-07-28T03:13:47.067Z,0
2017-07-28T03:14:13.232Z,0
2017-07-28T03:14:39.382Z,0
2017-07-28T03:15:05.524Z,0
2017-07-28T03:15:31.657Z,0
2017-07-28T03:15:57.754Z,0
2017-07-28T03:16:23.880Z,0
2017-07-28T03:16:49.999Z,0
2017-07-28T03:17:16.088Z,0
2017-07-28T03:17:42.249Z,0
2017-07-28T03:18:08.374Z,0
2017-07-28T03:18:34.490Z,0
2017-07-28T03:19:00.644Z,0
2017-07-28T03:19:26.775Z,0
2017-07-28T03:19:52.885Z,0
2017-07-28T03:20:19.065Z,0
2017-07-28T03:20:45.197Z,0
2017-07-28T03:21:11.361Z,0
2017-07-28T03:21:37.513Z,0
2017-07-28T03:22:03.656Z,0
2017-07-28T03:22:29.816Z,0
2017-07-28T03:22:55.917Z,0
2017-07-28T03:23:22.052Z,0
2017-07-28T03:23:48.196Z,0
2017-07-28T03:24:14.312Z,0
2017-07-28T03:24:40.474Z,0
2017-07-28T03:25:06.573Z,0
2017-07-28T03:25:32.734Z,0
2017-07-28T03:25:58.825Z,0
2017-07-28T03:26:24.946Z,0
2017-07-28T03:26:51.078Z,0
2017-07-28T03:27:17.248Z,0
2017-07-28T03:27:43.364Z,0
2017-07-28T03:28:09.521Z,0
2017-07-28T03:28:35.672Z,0
2017-07-28T03:29:01.812Z,0
2017-07-28T03:29:27.969Z,0
2017-07-28T03:29:54.068Z,0
2017-07-28T03:30:20.208Z,0
2017-07-28T03:30:46.386Z,0
2017-07-28T03:31:12.549Z,0
2017-07-28T03:31:39.290Z,0
2017-07-28T03:32:05.415Z,0
2017-07-28T03:32:31.575Z,0
2017-07-28T03:32:57.664Z,0
2017-07-28T03:33:23.822Z,0
2017-07-28T03:33:49.962Z,0
2017-07-28T03:34:16.092Z,0
2017-07-28T03:34:42.252Z,0
2017-07-28T03:35:08.364Z,0
2017-07-28T03:35:34.518Z,0
2017-07-28T03:36:00.647Z,0
2017-07-28T03:36:26.788Z,0
2017-07-28T03:36:52.908Z,0
2017-07-28T03:37:19.041Z,0
2017-07-28T03:37:45.157Z,0
2017-07-28T03:38:11.270Z,0
2017-07-28T03:38:37.456Z,0
2017-07-28T03:39:03.580Z,0
2017-07-28T03:39:29.685Z,5
2017-07-28T03:39:55.827Z,5
2017-07-28T03:40:21.971Z,5
2017-07-28T03:40:48.129Z,5
2017-07-28T03:41:14.249Z,5
2017-07-28T03:41:40.339Z,5
2017-07-28T03:42:06.505Z,5
2017-07-28T03:42:32.658Z,5
2017-07-28T03:42:58.749Z,5
2017-07-28T03:43:24.853Z,5
2017-07-28T03:43:50.953Z,5
2017-07-28T03:44:17.131Z,5
2017-07-28T03:44:43.248Z,5
2017-07-28T03:45:09.361Z,5
2017-07-28T03:45:35.523Z,5
2017-07-28T03:46:01.674Z,5
2017-07-28T03:46:27.836Z,5
2017-07-28T03:46:53.966Z,5
2017-07-28T03:47:20.065Z,5
2017-07-28T03:47:46.201Z,10
2017-07-28T03:48:12.356Z,10
2017-07-28T03:48:38.490Z,10
2017-07-28T03:49:04.574Z,10
2017-07-28T03:49:30.725Z,10
2017-07-28T03:49:56.873Z,10
2017-07-28T03:50:23.032Z,10
2017-07-28T03:50:49.214Z,10
2017-07-28T03:51:15.353Z,10
2017-07-28T03:51:41.455Z,10
2017-07-28T03:52:07.616Z,10
2017-07-28T03:52:33.726Z,10
2017-07-28T03:52:59.825Z,10
2017-07-28T03:53:25.931Z,10
2017-07-28T03:53:52.102Z,10
2017-07-28T03:54:18.197Z,10
2017-07-28T03:54:44.359Z,15
2017-07-28T03:55:10.501Z,15
2017-07-28T03:55:36.633Z,15
2017-07-28T03:56:02.793Z,15
2017-07-28T03:56:28.895Z,15
2017-07-28T03:56:55.053Z,15
2017-07-28T03:57:21.221Z,15
2017-07-28T03:57:47.392Z,15
2017-07-28T03:58:13.524Z,15
2017-07-28T03:58:39.643Z,15
2017-07-28T03:59:05.804Z,20
2017-07-28T03:59:31.963Z,20
2017-07-28T03:59:58.110Z,20
2017-07-28T04:00:24.249Z,20
2017-07-28T04:00:50.381Z,20
2017-07-28T04:01:16.500Z,20
2017-07-28T04:01:42.686Z,25
2017-07-28T04:02:08.837Z,25
2017-07-28T04:02:34.926Z,25
2017-07-28T04:03:01.092Z,25
2017-07-28T04:03:27.268Z,25
2017-07-28T04:03:53.381Z,25
2017-07-28T04:04:19.516Z,30
2017-07-28T04:04:45.670Z,30
2017-07-28T04:05:11.811Z,30
2017-07-28T04:05:37.964Z,30
2017-07-28T04:06:04.100Z,30
2017-07-28T04:06:30.294Z,30
2017-07-28T04:06:56.415Z,35
2017-07-28T04:07:22.529Z,35
2017-07-28T04:07:48.635Z,35
2017-07-28T04:08:14.817Z,35
2017-07-28T04:08:40.954Z,35
2017-07-28T04:09:07.085Z,35
2017-07-28T04:09:33.248Z,40
2017-07-28T04:09:59.361Z,40
2017-07-28T04:10:25.512Z,40
2017-07-28T04:10:51.695Z,40
2017-07-28T04:11:17.810Z,40
2017-07-28T04:11:43.930Z,40
2017-07-28T04:12:10.091Z,40
2017-07-28T04:12:36.238Z,40
2017-07-28T04:13:02.375Z,45
2017-07-28T04:13:28.537Z,45
2017-07-28T04:13:54.659Z,45
2017-07-28T04:14:20.820Z,45
2017-07-28T04:14:47.003Z,45
2017-07-28T04:15:13.130Z,45
2017-07-28T04:15:39.271Z,45
2017-07-28T04:16:05.373Z,45
2017-07-28T04:16:31.533Z,45
2017-07-28T04:16:57.696Z,50
2017-07-28T04:17:23.870Z,50
2017-07-28T04:17:49.991Z,50
2017-07-28T04:18:16.150Z,50
2017-07-28T04:18:42.274Z,50
2017-07-28T04:19:08.437Z,50
2017-07-28T04:19:34.589Z,55
2017-07-28T04:20:00.749Z,55
2017-07-28T04:20:26.939Z,55
2017-07-28T04:20:53.091Z,55
2017-07-28T04:21:19.221Z,60
2017-07-28T04:21:45.366Z,60
2017-07-28T04:22:11.484Z,65
2017-07-28T04:22:37.669Z,65
2017-07-28T04:23:03.763Z,65
2017-07-28T04:23:29.923Z,65
2017-07-28T04:23:56.011Z,65
2017-07-28T04:24:22.161Z,65
2017-07-28T04:24:48.295Z,70
2017-07-28T04:25:14.386Z,70
2017-07-28T04:25:40.482Z,70
2017-07-28T04:26:06.643Z,70
2017-07-28T04:26:32.736Z,70
2017-07-28T04:26:58.850Z,70
2017-07-28T04:27:24.958Z,70
2017-07-28T04:27:51.105Z,70
2017-07-28T04:28:17.222Z,70
2017-07-28T04:28:43.326Z,70
2017-07-28T04:29:09.443Z,70
2017-07-28T04:29:35.607Z,70
2017-07-28T04:30:01.725Z,70
2017-07-28T04:30:27.863Z,75
2017-07-28T04:30:53.999Z,75
2017-07-28T04:31:20.123Z,75
2017-07-28T04:31:46.260Z,70
2017-07-28T04:32:12.422Z,70
2017-07-28T04:32:38.549Z,70
2017-07-28T04:33:04.664Z,70
2017-07-28T04:33:30.819Z,70
2017-07-28T04:33:57.036Z,70
2017-07-28T04:34:23.177Z,65
2017-07-28T04:34:49.273Z,65
2017-07-28T04:35:15.385Z,65
2017-07-28T04:35:41.518Z,70
2017-07-28T04:36:07.672Z,70
2017-07-28T04:36:33.760Z,70
2017-07-28T04:36:59.912Z,75
2017-07-28T04:37:26.045Z,80
2017-07-28T04:37:52.179Z,85
2017-07-28T04:38:18.353Z,85
2017-07-28T04:38:44.486Z,90
2017-07-28T04:39:10.677Z,90
2017-07-28T04:39:36.822Z,90
2017-07-28T04:40:02.919Z,90
2017-07-28T04:40:29.044Z,90
2017-07-28T04:40:55.150Z,95
2017-07-28T04:41:21.334Z,90
2017-07-28T04:41:47.516Z,90
2017-07-28T04:42:13.671Z,90
2017-07-28T04:42:39.789Z,85
2017-07-28T04:43:05.958Z,80
2017-07-28T04:43:32.092Z,80
2017-07-28T04:43:58.265Z,80
2017-07-28T04:44:24.379Z,80
2017-07-28T04:44:50.488Z,80
2017-07-28T04:45:16.638Z,75
2017-07-28T04:45:42.792Z,75
2017-07-28T04:46:08.962Z,75
2017-07-28T04:46:35.107Z,75
2017-07-28T04:47:01.268Z,70
2017-07-28T04:47:27.389Z,70
2017-07-28T04:47:53.557Z,70
2017-07-28T04:48:19.693Z,70
2017-07-28T04:48:45.845Z,70
2017-07-28T04:49:11.934Z,75
2017-07-28T04:49:38.065Z,75
2017-07-28T04:50:04.218Z,80
2017-07-28T04:50:30.355Z,85
2017-07-28T04:50:56.460Z,95
2017-07-28T04:51:22.550Z,100
2017-07-28T04:51:48.689Z,105
2017-07-28T04:52:14.808Z,105
2017-07-28T04:52:40.972Z,105
2017-07-28T04:53:07.161Z,105
2017-07-28T04:53:33.332Z,105
2017-07-28T04:53:59.427Z,105
2017-07-28T04:54:25.581Z,105
2017-07-28T04:54:51.738Z,110
2017-07-28T04:55:17.925Z,110
2017-07-28T04:55:44.053Z,110
2017-07-28T04:56:10.186Z,105
2017-07-28T04:56:36.304Z,100
2017-07-28T04:57:02.450Z,95
2017-07-28T04:57:28.641Z,90
2017-07-28T04:57:54.758Z,85
2017-07-28T04:58:20.900Z,85
2017-07-28T04:58:47.037Z,90
2017-07-28T04:59:13.134Z,100
2017-07-28T04:59:39.251Z,105
2017-07-28T05:00:05.437Z,110
2017-07-28T05:00:31.564Z,120
2017-07-28T05:00:57.704Z,130
2017-07-28T05:01:23.807Z,135
2017-07-28T05:01:49.915Z,140
2017-07-28T05:02:16.088Z,145
2017-07-28T05:02:42.210Z,145
2017-07-28T05:03:08.301Z,145
2017-07-28T05:03:34.406Z,145
2017-07-28T05:04:00.506Z,140
2017-07-28T05:04:26.645Z,135
2017-07-28T05:04:52.776Z,130
2017-07-28T05:05:18.882Z,125
2017-07-28T05:05:44.968Z,125
2017-07-28T05:06:11.091Z,130
2017-07-28T05:06:37.252Z,140
2017-07-28T05:07:03.341Z,150
2017-07-28T05:07:29.460Z,160
2017-07-28T05:07:55.583Z,170
2017-07-28T05:08:21.736Z,175
2017-07-28T05:08:47.840Z,170
2017-07-28T05:09:13.953Z,155
2017-07-28T05:09:40.101Z,140
2017-07-28T05:10:06.261Z,135
2017-07-28T05:10:32.431Z,135
2017-07-28T05:10:58.599Z,140
2017-07-28T05:11:24.760Z,150
2017-07-28T05:11:50.878Z,160
2017-07-28T05:12:16.968Z,175
2017-07-28T05:12:43.155Z,195
2017-07-28T05:13:09.252Z,205
2017-07-28T05:13:35.429Z,200
2017-07-28T05:14:01.594Z,195
2017-07-28T05:14:27.741Z,195
2017-07-28T05:14:53.904Z,190
2017-07-28T05:15:20.050Z,185
2017-07-28T05:15:46.188Z,180
2017-07-28T05:16:12.327Z,175
2017-07-28T05:16:38.476Z,175
2017-07-28T05:17:04.618Z,180
2017-07-28T05:17:30.722Z,190
2017-07-28T05:17:56.850Z,195
2017-07-28T05:18:23.014Z,205
2017-07-28T05:18:49.167Z,210
2017-07-28T05:19:15.282Z,210
2017-07-28T05:19:41.448Z,205
2017-07-28T05:20:07.634Z,200
2017-07-28T05:20:33.788Z,190
2017-07-28T05:20:59.921Z,180
2017-07-28T05:21:26.104Z,175
2017-07-28T05:21:52.264Z,170
2017-07-28T05:22:18.420Z,165
2017-07-28T05:22:44.553Z,165
2017-07-28T05:23:10.691Z,165
2017-07-28T05:23:36.868Z,160
2017-07-28T05:24:02.975Z,160
2017-07-28T05:24:29.121Z,160
2017-07-28T05:24:55.297Z,160
2017-07-28T05:25:21.440Z,160
2017-07-28T05:25:47.569Z,165
2017-07-28T05:26:13.731Z,165
2017-07-28T05:26:39.868Z,165
2017-07-28T05:27:05.994Z,170
2017-07-28T05:27:32.152Z,170
2017-07-28T05:27:58.267Z,175
2017-07-28T05:28:24.389Z,175
2017-07-28T05:28:50.520Z,180
2017-07-28T05:29:16.641Z,180
2017-07-28T05:29:42.778Z,185
2017-07-28T05:30:08.909Z,190
2017-07-28T05:30:35.009Z,190
2017-07-28T05:31:01.144Z,195
2017-07-28T05:31:27.314Z,200
2017-07-28T05:31:53.457Z,205
2017-07-28T05:32:19.567Z,210
2017-07-28T05:32:45.737Z,220
2017-07-28T05:33:11.828Z,225
2017-07-28T05:33:37.986Z,230
2017-07-28T05:34:04.135Z,235
2017-07-28T05:34:30.296Z,240
2017-07-28T05:34:56.403Z,255
2017-07-28T05:35:22.532Z,255
2017-07-28T05:35:48.708Z,255
2017-07-28T05:36:14.855Z,260
2017-07-28T05:36:40.970Z,270
2017-07-28T05:37:07.145Z,270
2017-07-28T05:37:33.295Z,275
2017-07-28T05:37:59.434Z,275
2017-07-28T05:38:25.644Z,270
2017-07-28T05:38:51.773Z,265
2017-07-28T05:39:17.917Z,270
2017-07-28T05:39:44.041Z,275
2017-07-28T05:40:10.175Z,275
2017-07-28T05:40:36.340Z,275
2017-07-28T05:41:02.517Z,275
2017-07-28T05:41:28.651Z,260
2017-07-28T05:41:54.793Z,240
2017-07-28T05:42:20.937Z,235
2017-07-28T05:42:47.044Z,230
2017-07-28T05:43:13.218Z,215
2017-07-28T05:43:39.332Z,205
2017-07-28T05:44:05.465Z,205
2017-07-28T05:44:31.583Z,205
2017-07-28T05:44:57.676Z,210
2017-07-28T05:45:23.859Z,210
2017-07-28T05:45:49.987Z,230
2017-07-28T05:46:16.127Z,275
2017-07-28T05:46:42.306Z,320
2017-07-28T05:47:08.448Z,335
2017-07-28T05:47:34.559Z,335
2017-07-28T05:48:00.656Z,345
2017-07-28T05:48:26.799Z,365
2017-07-28T05:48:52.930Z,355
2017-07-28T05:49:19.057Z,325
2017-07-28T05:49:45.197Z,310
2017-07-28T05:50:11.300Z,335
2017-07-28T05:50:37.435Z,365
2017-07-28T05:51:03.522Z,370
2017-07-28T05:51:29.643Z,375
2017-07-28T05:51:55.749Z,395
2017-07-28T05:52:21.864Z,390
2017-07-28T05:52:48.050Z,390
2017-07-28T05:53:14.211Z,380
2017-07-28T05:53:40.342Z,345
2017-07-28T05:54:06.472Z,320
2017-07-28T05:54:32.581Z,310
2017-07-28T05:54:58.734Z,320
2017-07-28T05:55:24.951Z,335
2017-07-28T05:55:51.070Z,340
2017-07-28T05:56:17.218Z,360
2017-07-28T05:56:43.351Z,405
2017-07-28T05:57:09.524Z,435
2017-07-28T05:57:35.663Z,455
2017-07-28T05:58:01.820Z,420
2017-07-28T05:58:27.943Z,365
2017-07-28T05:58:54.051Z,330
2017-07-28T05:59:20.164Z,300
2017-07-28T05:59:46.336Z,270
2017-07-28T06:00:12.494Z,250
2017-07-28T06:00:38.663Z,245
2017-07-28T06:01:04.826Z,245
2017-07-28T06:01:30.995Z,260
2017-07-28T06:01:57.116Z,275
2017-07-28T06:02:23.303Z,290
2017-07-28T06:02:49.437Z,295
2017-07-28T06:03:15.559Z,305
2017-07-28T06:03:41.711Z,335
2017-07-28T06:04:07.885Z,380
2017-07-28T06:04:34.024Z,415
2017-07-28T06:05:00.133Z,430
2017-07-28T06:05:26.261Z,455
2017-07-28T06:05:52.453Z,485
2017-07-28T06:06:18.605Z,480
2017-07-28T06:06:44.761Z,440
2017-07-28T06:07:10.900Z,430
2017-07-28T06:07:37.080Z,420
2017-07-28T06:08:03.215Z,420
2017-07-28T06:08:29.353Z,420
2017-07-28T06:08:55.481Z,395
2017-07-28T06:09:21.656Z,385
2017-07-28T06:09:47.785Z,400
2017-07-28T06:10:13.968Z,410
2017-07-28T06:10:40.082Z,400
2017-07-28T06:11:06.262Z,390
2017-07-28T06:11:32.395Z,400
2017-07-28T06:11:58.558Z,385
2017-07-28T06:12:24.688Z,385
2017-07-28T06:12:50.824Z,370
2017-07-28T06:13:16.942Z,350
2017-07-28T06:13:43.083Z,345
2017-07-28T06:14:09.272Z,355
2017-07-28T06:14:35.393Z,355
2017-07-28T06:15:01.553Z,345
2017-07-28T06:15:27.671Z,355
2017-07-28T06:15:53.847Z,365
2017-07-28T06:16:20.030Z,400
2017-07-28T06:16:46.098Z,445
2017-07-28T06:17:12.243Z,485
2017-07-28T06:17:38.433Z,495
2017-07-28T06:18:04.554Z,465